Benedict, North Dakota
Current Conditions -  °F | °C
As of 12:54 PM on Monday 22 Dec 2014 (Local Time) from KMOT Reporting Station
Haze Haze  
Wind Chill: 20°   Ceiling: 700
Heat Index: 29°   Visibility: 6mi
Dew Point: 26°   Wind: 9mph
Humidity: 89%   Direction: 350°N
Pressure: 29.56"   Gusts: NA
Location:  47.83°N, 101.08°W
Report Text: KMOT 221854Z 35008KT 6SM BR BKN007 OVC010 M02/M03 A2956 RMK AO2 CIG 005V009 SLP032 T10171033
Loading
Personal Weather Stations






























Interactive Weather Map New forecast layout! Learn more

10-Day Weather Forecast

Advertisements
Track Severe Weather on mobile